Time;durP1;ratioP1;P1;durP2;ratioP2;P2;SDS_P1;SDS_P2;PMS_P1;PMS_P2;Temp;Humidity;BMP_temperature;BMP_pressure;BME280_temperature;BME280_humidity;BME280_pressure;Samples;Min_cycle;Max_cycle;Signal;HPM_P1;HPM_P2
2022/09/25 00:00:08;;;;;;;;;;;18.00;63.00;;;;;;5095469;28;19908;-92
2022/09/25 00:02:34;;;;;;;;;;;18.00;62.90;;;;;;5095561;28;19923;-90
2022/09/25 00:04:59;;;;;;;;;;;18.00;62.80;;;;;;5097255;28;19908;-88
2022/09/25 00:07:25;;;;;;;;;;;17.90;62.70;;;;;;5094689;28;19916;-91
2022/09/25 00:09:50;;;;;;;;;;;17.80;62.50;;;;;;5094308;28;19908;-89
2022/09/25 00:12:16;;;;;;;;;;;17.70;62.40;;;;;;5094759;28;20480;-91
2022/09/25 00:14:41;;;;;;;;;;;17.70;62.20;;;;;;5094416;28;20377;-87
2022/09/25 00:17:07;;;;;;;;;;;17.60;62.00;;;;;;5093385;28;19916;-85
2022/09/25 00:19:51;;;;;;;;;;;17.40;61.90;;;;;;5092680;28;19920;-91
2022/09/25 00:22:21;;;;;;;;;;;17.30;62.00;;;;;;5095144;28;19927;-87
2022/09/25 00:24:47;;;;;;;;;;;17.20;61.90;;;;;;5093472;28;19916;-91
2022/09/25 00:27:12;;;;;;;;;;;17.10;61.80;;;;;;5094111;28;20282;-89
2022/09/25 00:29:38;;;;;;;;;;;17.00;61.80;;;;;;5092609;28;19915;-89
2022/09/25 00:32:05;;;;;;;;;;;17.00;61.70;;;;;;5093964;28;19916;-85
2022/09/25 00:34:31;;;;;;;;;;;16.80;61.60;;;;;;5094661;28;19912;-91
2022/09/25 00:36:56;;;;;;;;;;;16.80;61.60;;;;;;5094609;28;19912;-86
2022/09/25 00:39:21;;;;;;;;;;;16.80;61.70;;;;;;5096222;28;19935;-91
2022/09/25 00:41:47;;;;;;;;;;;16.70;61.90;;;;;;5096128;28;19916;-86
2022/09/25 00:44:31;;;;;;;;;;;16.70;62.30;;;;;;5094984;28;19912;-89
2022/09/25 00:46:56;;;;;;;;;;;16.70;62.70;;;;;;5093639;28;19978;-88
2022/09/25 00:49:23;;;;;;;;;;;16.80;63.10;;;;;;5095635;28;19961;-89
2022/09/25 00:51:56;;;;;;;;;;;16.80;63.30;;;;;;5096504;28;20022;-90
2022/09/25 00:54:24;;;;;;;;;;;16.90;63.50;;;;;;5094877;28;19927;-92
2022/09/25 00:56:51;;;;;;;;;;;17.00;63.60;;;;;;5095348;28;20209;-90
2022/09/25 00:59:19;;;;;;;;;;;17.00;63.60;;;;;;5093193;28;20306;-86
2022/09/25 01:01:45;;;;;;;;;;;17.10;63.70;;;;;;5094484;28;19944;-87
2022/09/25 01:04:11;;;;;;;;;;;17.10;63.60;;;;;;5095171;28;20011;-88
2022/09/25 01:06:37;;;;;;;;;;;17.10;63.60;;;;;;5094610;28;19908;-86
2022/09/25 01:09:03;;;;;;;;;;;17.10;63.40;;;;;;5093079;28;19926;-87
2022/09/25 01:11:29;;;;;;;;;;;17.20;63.40;;;;;;5078540;28;20186;-92
2022/09/25 01:13:56;;;;;;;;;;;17.10;63.40;;;;;;5074426;28;19919;-92
2022/09/25 01:16:28;;;;;;;;;;;17.10;63.40;;;;;;5074057;28;19916;-92
2022/09/25 01:19:12;;;;;;;;;;;17.10;63.30;;;;;;5071315;28;19927;-91
2022/09/25 01:21:41;;;;;;;;;;;17.10;63.20;;;;;;5073443;28;20378;-87
2022/09/25 01:24:21;;;;;;;;;;;17.00;63.10;;;;;;5072365;28;20007;-90
2022/09/25 01:27:13;;;;;;;;;;;17.00;62.90;;;;;;5071536;28;19955;-86
2022/09/25 01:29:42;;;;;;;;;;;16.90;62.80;;;;;;5057791;28;20325;-85
2022/09/25 01:32:23;;;;;;;;;;;16.80;62.60;;;;;;5073588;28;19978;-87
2022/09/25 01:35:07;;;;;;;;;;;16.80;62.60;;;;;;5072690;28;20003;-85
2022/09/25 01:37:42;;;;;;;;;;;16.80;62.60;;;;;;5071088;28;19990;-89
2022/09/25 01:40:26;;;;;;;;;;;16.70;62.70;;;;;;5072102;28;19927;-87
2022/09/25 01:42:54;;;;;;;;;;;16.80;62.80;;;;;;5072741;28;20007;-86
2022/09/25 01:45:27;;;;;;;;;;;16.80;62.90;;;;;;5073430;28;19931;-90
2022/09/25 01:47:54;;;;;;;;;;;16.70;62.90;;;;;;5076028;28;19920;-86
2022/09/25 01:50:24;;;;;;;;;;;16.70;62.90;;;;;;5072885;28;19914;-87
2022/09/25 01:52:51;;;;;;;;;;;16.80;63.00;;;;;;5074769;28;19967;-88
2022/09/25 01:55:20;;;;;;;;;;;16.80;63.00;;;;;;5071423;28;19953;-89
2022/09/25 01:57:49;;;;;;;;;;;16.80;63.00;;;;;;5072769;28;19942;-85
2022/09/25 02:00:17;;;;;;;;;;;16.80;63.00;;;;;;5071175;28;19916;-91
2022/09/25 02:02:45;;;;;;;;;;;16.90;63.10;;;;;;5072281;28;19920;-86
2022/09/25 02:05:14;;;;;;;;;;;16.90;63.10;;;;;;5072577;28;19908;-90
2022/09/25 02:07:43;;;;;;;;;;;16.90;63.20;;;;;;5078721;28;20003;-90
2022/09/25 02:10:11;;;;;;;;;;;17.00;63.40;;;;;;5071553;28;20270;-90
2022/09/25 02:12:39;;;;;;;;;;;17.00;63.50;;;;;;5070647;28;19922;-89
2022/09/25 02:15:13;;;;;;;;;;;17.10;63.60;;;;;;5070487;28;20290;-87
2022/09/25 02:21:03;;;;;;;;;;;17.30;63.60;;;;;;5050264;28;19931;-86
2022/09/25 02:23:49;;;;;;;;;;;17.30;63.60;;;;;;5071245;28;20283;-85
2022/09/25 02:26:20;;;;;;;;;;;17.30;63.50;;;;;;5073783;28;20493;-88
2022/09/25 02:28:48;;;;;;;;;;;17.30;63.50;;;;;;5071327;28;20375;-88
2022/09/25 02:31:15;;;;;;;;;;;17.40;63.50;;;;;;5071816;28;19917;-91
2022/09/25 02:33:42;;;;;;;;;;;17.40;63.50;;;;;;5071898;28;20358;-92
2022/09/25 02:36:15;;;;;;;;;;;17.50;63.50;;;;;;5070558;28;20424;-86
2022/09/25 02:38:41;;;;;;;;;;;17.60;63.50;;;;;;5072756;28;20351;-87
2022/09/25 02:41:25;;;;;;;;;;;17.60;63.50;;;;;;5070255;28;19915;-90
2022/09/25 02:43:59;;;;;;;;;;;17.60;63.50;;;;;;5075703;28;19924;-85
2022/09/25 02:46:25;;;;;;;;;;;17.70;63.50;;;;;;5070520;28;19915;-92
2022/09/25 02:48:53;;;;;;;;;;;17.70;63.40;;;;;;5072669;28;20374;-88
2022/09/25 02:51:28;;;;;;;;;;;17.70;63.30;;;;;;5073880;28;19912;-90
2022/09/25 02:54:04;;;;;;;;;;;17.70;63.30;;;;;;5073710;28;20619;-89
2022/09/25 02:56:32;;;;;;;;;;;17.70;63.30;;;;;;5070576;28;19918;-88
2022/09/25 02:59:01;;;;;;;;;;;17.70;63.40;;;;;;5071442;28;19935;-88
2022/09/25 03:01:27;;;;;;;;;;;17.80;63.40;;;;;;5071751;28;19908;-91
2022/09/25 03:03:56;;;;;;;;;;;17.80;63.30;;;;;;5072099;28;19921;-93
2022/09/25 03:06:22;;;;;;;;;;;17.80;63.30;;;;;;5070228;28;20314;-87
2022/09/25 03:08:50;;;;;;;;;;;17.80;63.30;;;;;;5071464;28;19920;-88
2022/09/25 03:11:17;;;;;;;;;;;17.80;63.30;;;;;;5089306;28;19909;-84
2022/09/25 03:13:43;;;;;;;;;;;17.80;63.30;;;;;;5092040;28;19943;-92
2022/09/25 03:16:13;;;;;;;;;;;17.90;63.30;;;;;;5092195;28;19919;-92
2022/09/25 03:18:39;;;;;;;;;;;18.00;63.20;;;;;;5090662;28;20227;-88
2022/09/25 03:21:05;;;;;;;;;;;18.00;63.00;;;;;;5089778;28;20002;-89
2022/09/25 03:23:31;;;;;;;;;;;18.00;63.10;;;;;;5093442;28;19916;-91
2022/09/25 03:25:56;;;;;;;;;;;18.00;63.20;;;;;;5094668;28;19916;-86
2022/09/25 03:28:22;;;;;;;;;;;18.10;63.10;;;;;;5096179;28;19960;-88
2022/09/25 03:30:58;;;;;;;;;;;18.10;63.00;;;;;;5093859;28;20008;-89
2022/09/25 03:33:24;;;;;;;;;;;18.10;63.10;;;;;;5097018;28;19908;-91
2022/09/25 03:35:58;;;;;;;;;;;18.10;63.10;;;;;;5096563;28;20023;-90
2022/09/25 03:38:24;;;;;;;;;;;18.10;63.20;;;;;;5097311;28;19916;-92
2022/09/25 03:40:49;;;;;;;;;;;18.20;63.20;;;;;;5093730;28;19922;-84
2022/09/25 03:43:15;;;;;;;;;;;18.20;63.10;;;;;;5095772;28;20355;-89
2022/09/25 03:45:40;;;;;;;;;;;18.20;63.10;;;;;;5096868;28;19948;-86
2022/09/25 03:48:06;;;;;;;;;;;18.20;62.90;;;;;;5096037;28;19954;-84
2022/09/25 03:50:31;;;;;;;;;;;18.20;62.90;;;;;;5096324;28;19951;-89
2022/09/25 03:52:57;;;;;;;;;;;18.20;63.00;;;;;;5094348;28;20342;-89
2022/09/25 03:55:24;;;;;;;;;;;18.20;63.00;;;;;;5098273;28;20362;-86
2022/09/25 03:57:50;;;;;;;;;;;18.20;63.10;;;;;;5096723;28;19908;-89
2022/09/25 04:00:16;;;;;;;;;;;18.20;63.00;;;;;;5097597;28;19928;-90
2022/09/25 04:02:41;;;;;;;;;;;18.20;63.00;;;;;;5096399;28;19908;-92
2022/09/25 04:05:08;;;;;;;;;;;18.20;62.90;;;;;;5097578;28;19923;-92
2022/09/25 04:07:34;;;;;;;;;;;18.20;62.80;;;;;;5096230;28;19923;-86
2022/09/25 04:09:59;;;;;;;;;;;18.10;62.70;;;;;;5093990;28;19916;-87
2022/09/25 04:12:25;;;;;;;;;;;18.10;62.60;;;;;;5075213;28;19913;-87
2022/09/25 04:14:51;;;;;;;;;;;18.00;62.50;;;;;;5074407;28;19917;-92
2022/09/25 04:17:17;;;;;;;;;;;17.90;62.40;;;;;;5074271;28;19915;-92
2022/09/25 04:19:42;;;;;;;;;;;17.80;62.30;;;;;;5074219;28;20003;-87
2022/09/25 04:22:08;;;;;;;;;;;17.70;62.30;;;;;;5074853;28;19930;-90
2022/09/25 04:24:48;;;;;;;;;;;17.60;62.20;;;;;;5075109;28;20023;-90
2022/09/25 04:27:17;;;;;;;;;;;17.60;62.20;;;;;;5074211;28;19947;-85
2022/09/25 04:29:43;;;;;;;;;;;17.50;62.20;;;;;;5072049;28;19916;-86
2022/09/25 04:34:53;;;;;;;;;;;17.30;62.10;;;;;;5073005;28;19923;-89
2022/09/25 04:37:22;;;;;;;;;;;17.30;62.20;;;;;;5074255;28;19908;-89
2022/09/25 04:39:47;;;;;;;;;;;17.20;62.20;;;;;;5073587;28;19978;-89
2022/09/25 04:42:14;;;;;;;;;;;17.20;62.20;;;;;;5074275;28;19908;-89
2022/09/25 04:44:39;;;;;;;;;;;17.20;62.30;;;;;;5075964;28;19923;-90
2022/09/25 04:47:05;;;;;;;;;;;17.10;62.30;;;;;;5073827;28;19916;-91
2022/09/25 04:49:30;;;;;;;;;;;17.10;62.40;;;;;;5076078;28;19924;-89
2022/09/25 04:51:56;;;;;;;;;;;17.10;62.40;;;;;;5073237;28;19912;-92
2022/09/25 04:54:21;;;;;;;;;;;17.10;62.30;;;;;;5073626;28;20354;-86
2022/09/25 04:56:47;;;;;;;;;;;17.00;62.20;;;;;;5073241;28;19912;-91
2022/09/25 04:59:15;;;;;;;;;;;17.00;62.20;;;;;;5072493;28;19924;-88
2022/09/25 05:01:41;;;;;;;;;;;17.00;62.30;;;;;;5071512;28;19908;-89
2022/09/25 05:04:06;;;;;;;;;;;17.00;62.50;;;;;;5072463;28;19931;-87
2022/09/25 05:06:32;;;;;;;;;;;17.10;62.50;;;;;;5072721;28;20000;-90
2022/09/25 05:08:58;;;;;;;;;;;17.10;62.60;;;;;;5072585;28;20343;-90
2022/09/25 05:11:24;;;;;;;;;;;17.10;62.60;;;;;;5085358;28;20017;-86
2022/09/25 05:13:50;;;;;;;;;;;17.10;62.60;;;;;;5092701;28;20370;-88
2022/09/25 05:16:15;;;;;;;;;;;17.10;62.60;;;;;;5093364;28;19914;-89
2022/09/25 05:18:41;;;;;;;;;;;17.20;62.70;;;;;;5092315;28;19920;-87
2022/09/25 05:21:06;;;;;;;;;;;17.10;62.70;;;;;;5094105;28;19953;-88
2022/09/25 05:23:32;;;;;;;;;;;17.10;62.70;;;;;;5096308;28;19916;-89
2022/09/25 05:26:00;;;;;;;;;;;17.20;62.80;;;;;;5093118;28;19920;-92
2022/09/25 05:28:35;;;;;;;;;;;17.20;62.70;;;;;;5093080;28;19996;-91
2022/09/25 05:31:02;;;;;;;;;;;17.20;62.80;;;;;;5091102;28;20278;-89
2022/09/25 05:33:28;;;;;;;;;;;17.20;62.70;;;;;;5094790;28;19926;-87
2022/09/25 05:35:53;;;;;;;;;;;17.20;62.70;;;;;;5091280;28;19916;-87
2022/09/25 05:38:19;;;;;;;;;;;17.10;62.60;;;;;;5092046;28;19923;-91
2022/09/25 05:40:45;;;;;;;;;;;17.10;62.60;;;;;;5091253;28;20365;-89
2022/09/25 05:43:11;;;;;;;;;;;17.10;62.60;;;;;;5092378;28;20392;-89
2022/09/25 05:45:37;;;;;;;;;;;17.00;62.70;;;;;;5092238;28;19916;-90
2022/09/25 05:48:03;;;;;;;;;;;17.10;62.80;;;;;;5091263;28;19991;-89
2022/09/25 05:50:31;;;;;;;;;;;17.10;62.90;;;;;;5092698;28;19917;-85
2022/09/25 05:52:59;;;;;;;;;;;17.10;62.90;;;;;;5096293;28;19908;-89
2022/09/25 05:55:25;;;;;;;;;;;17.10;62.80;;;;;;5090789;28;20027;-90
2022/09/25 05:57:50;;;;;;;;;;;17.10;62.80;;;;;;5090966;28;20374;-85
2022/09/25 06:00:16;;;;;;;;;;;17.20;62.80;;;;;;5093273;28;19927;-88
2022/09/25 06:02:41;;;;;;;;;;;17.20;62.80;;;;;;5091945;28;20294;-87
2022/09/25 06:05:07;;;;;;;;;;;17.30;63.00;;;;;;5089346;28;19927;-85
2022/09/25 06:07:33;;;;;;;;;;;17.30;63.20;;;;;;5087160;28;19916;-86
2022/09/25 06:09:59;;;;;;;;;;;17.40;63.30;;;;;;5086622;28;19916;-92
2022/09/25 06:12:24;;;;;;;;;;;17.40;63.40;;;;;;5070245;28;19908;-91
2022/09/25 06:14:51;;;;;;;;;;;17.50;63.30;;;;;;5078644;28;20444;-88
2022/09/25 06:17:16;;;;;;;;;;;17.50;63.30;;;;;;5093464;28;19908;-90
2022/09/25 06:19:42;;;;;;;;;;;17.50;63.30;;;;;;5093239;28;20034;-89
2022/09/25 06:22:07;;;;;;;;;;;17.50;63.30;;;;;;5092221;28;19919;-87
2022/09/25 06:24:33;;;;;;;;;;;17.50;63.30;;;;;;5091486;28;20320;-85
2022/09/25 06:26:58;;;;;;;;;;;17.50;63.20;;;;;;5086004;28;19913;-86
2022/09/25 06:29:23;;;;;;;;;;;17.50;63.10;;;;;;5071637;28;19924;-88
2022/09/25 06:31:50;;;;;;;;;;;17.50;63.00;;;;;;5073085;28;19908;-91
2022/09/25 06:34:16;;;;;;;;;;;17.50;63.10;;;;;;5071388;28;20440;-90
2022/09/25 06:36:41;;;;;;;;;;;17.60;63.20;;;;;;5071270;28;19912;-91
2022/09/25 06:39:07;;;;;;;;;;;17.70;63.20;;;;;;5069738;28;19935;-90
2022/09/25 06:41:32;;;;;;;;;;;17.70;63.20;;;;;;5069352;28;20427;-92
2022/09/25 06:43:58;;;;;;;;;;;17.70;63.20;;;;;;5071053;28;19974;-86
2022/09/25 06:46:24;;;;;;;;;;;17.80;63.20;;;;;;5072974;28;19909;-89
2022/09/25 06:48:52;;;;;;;;;;;17.90;63.40;;;;;;5072989;28;20406;-90
2022/09/25 06:51:18;;;;;;;;;;;18.00;63.50;;;;;;5069432;28;19921;-89
2022/09/25 06:53:44;;;;;;;;;;;18.10;63.60;;;;;;5070846;28;20261;-89
2022/09/25 06:56:09;;;;;;;;;;;18.20;63.80;;;;;;5070198;28;19957;-86
2022/09/25 06:58:35;;;;;;;;;;;18.30;64.00;;;;;;5073094;28;19916;-91
2022/09/25 07:01:00;;;;;;;;;;;18.50;64.20;;;;;;5075435;28;19923;-92
2022/09/25 07:03:44;;;;;;;;;;;18.60;64.40;;;;;;5081073;28;19915;-85
2022/09/25 07:06:11;;;;;;;;;;;18.70;64.60;;;;;;5096440;28;19917;-91
2022/09/25 07:08:37;;;;;;;;;;;18.80;64.30;;;;;;5093294;28;20005;-89
2022/09/25 07:11:03;;;;;;;;;;;18.90;64.60;;;;;;5094324;28;19955;-90
2022/09/25 07:13:30;;;;;;;;;;;19.00;64.10;;;;;;5095552;28;19915;-86
2022/09/25 07:16:03;;;;;;;;;;;19.20;65.20;;;;;;5096037;28;19916;-85
2022/09/25 07:18:28;;;;;;;;;;;19.30;65.10;;;;;;5094025;28;19920;-89
2022/09/25 07:21:02;;;;;;;;;;;19.60;66.10;;;;;;5095803;28;19922;-91
2022/09/25 07:23:29;;;;;;;;;;;19.80;66.10;;;;;;5094955;28;19919;-89
2022/09/25 07:25:56;;;;;;;;;;;20.10;66.30;;;;;;5094588;28;20345;-89
2022/09/25 07:28:21;;;;;;;;;;;20.20;66.20;;;;;;5093721;28;19908;-88
2022/09/25 07:30:48;;;;;;;;;;;20.50;68.00;;;;;;5093905;28;19912;-90
2022/09/25 07:33:13;;;;;;;;;;;21.00;69.50;;;;;;5094740;28;20308;-89
2022/09/25 07:35:39;;;;;;;;;;;21.70;71.00;;;;;;5094513;28;20341;-90
2022/09/25 07:38:05;;;;;;;;;;;22.50;71.50;;;;;;5093160;28;20251;-87
2022/09/25 07:40:34;;;;;;;;;;;23.30;71.30;;;;;;5093012;28;19943;-89
2022/09/25 07:42:59;;;;;;;;;;;24.10;71.30;;;;;;5094862;28;19920;-92
2022/09/25 07:45:25;;;;;;;;;;;25.00;71.10;;;;;;5093534;28;20274;-91
2022/09/25 07:47:54;;;;;;;;;;;25.70;70.20;;;;;;5095342;28;19962;-87
2022/09/25 07:50:19;;;;;;;;;;;26.40;69.80;;;;;;5094648;28;20387;-91
2022/09/25 07:52:45;;;;;;;;;;;27.00;68.00;;;;;;5093158;28;19971;-90
2022/09/25 07:55:11;;;;;;;;;;;27.30;66.80;;;;;;5092811;28;19908;-88
2022/09/25 07:57:36;;;;;;;;;;;27.50;65.70;;;;;;5095149;28;19916;-90
2022/09/25 08:00:03;;;;;;;;;;;27.70;65.90;;;;;;5096614;28;19920;-87
2022/09/25 08:02:33;;;;;;;;;;;28.00;65.70;;;;;;5094241;28;20706;-87
2022/09/25 08:05:00;;;;;;;;;;;28.30;65.80;;;;;;5093900;28;19912;-85
2022/09/25 08:07:26;;;;;;;;;;;28.60;63.90;;;;;;5094175;28;20255;-90
2022/09/25 08:09:52;;;;;;;;;;;28.70;63.60;;;;;;5091521;28;19923;-87
2022/09/25 08:12:18;;;;;;;;;;;28.70;63.20;;;;;;5093802;28;20010;-86
2022/09/25 08:14:43;;;;;;;;;;;28.70;61.20;;;;;;5092728;28;19913;-90
2022/09/25 08:17:09;;;;;;;;;;;28.60;59.40;;;;;;5093829;28;19999;-86
2022/09/25 08:19:34;;;;;;;;;;;28.50;58.50;;;;;;5094514;28;19928;-88
2022/09/25 08:22:00;;;;;;;;;;;28.40;57.00;;;;;;5092292;28;19967;-88
2022/09/25 08:24:25;;;;;;;;;;;28.30;56.00;;;;;;5094156;28;19923;-91
2022/09/25 08:26:51;;;;;;;;;;;28.10;55.80;;;;;;5094027;28;19919;-92
2022/09/25 08:29:17;;;;;;;;;;;28.00;56.90;;;;;;5095787;28;19920;-88
2022/09/25 08:31:43;;;;;;;;;;;27.90;57.30;;;;;;5092273;28;19908;-85
2022/09/25 08:34:09;;;;;;;;;;;27.80;58.00;;;;;;5093728;28;19923;-90
2022/09/25 08:36:34;;;;;;;;;;;27.60;57.50;;;;;;5095153;28;20017;-85
2022/09/25 08:39:00;;;;;;;;;;;27.40;57.50;;;;;;5093536;28;19971;-89
2022/09/25 08:41:30;;;;;;;;;;;27.30;56.40;;;;;;5094366;28;19994;-91
2022/09/25 08:43:58;;;;;;;;;;;27.10;54.80;;;;;;5094191;28;20377;-86
2022/09/25 08:49:28;;;;;;;;;;;26.70;56.20;;;;;;5092198;28;19994;-89
2022/09/25 08:51:57;;;;;;;;;;;26.60;55.00;;;;;;5081450;28;20442;-88
2022/09/25 08:54:24;;;;;;;;;;;26.60;55.40;;;;;;5093614;28;19916;-88
2022/09/25 08:56:52;;;;;;;;;;;26.50;56.70;;;;;;5092778;28;19919;-86
2022/09/25 08:59:27;;;;;;;;;;;26.70;57.60;;;;;;5094177;28;19924;-92
2022/09/25 09:01:58;;;;;;;;;;;27.00;57.40;;;;;;5093872;28;20011;-91
2022/09/25 09:04:24;;;;;;;;;;;27.30;57.50;;;;;;5092931;28;19912;-88
2022/09/25 09:06:52;;;;;;;;;;;27.30;55.90;;;;;;5093407;28;19926;-87
2022/09/25 09:09:30;;;;;;;;;;;27.20;55.70;;;;;;5072301;28;19986;-89
2022/09/25 09:12:05;;;;;;;;;;;27.60;56.90;;;;;;5077604;28;19912;-90
2022/09/25 09:14:34;;;;;;;;;;;27.90;56.50;;;;;;5074201;28;19916;-90
2022/09/25 09:17:19;;;;;;;;;;;28.10;53.10;;;;;;5078926;28;19928;-92
2022/09/25 09:19:50;;;;;;;;;;;28.20;52.00;;;;;;5091069;28;19924;-92
2022/09/25 09:22:19;;;;;;;;;;;28.30;53.40;;;;;;5091630;28;19916;-88
2022/09/25 09:24:57;;;;;;;;;;;28.70;53.70;;;;;;5092343;28;19966;-86
2022/09/25 09:27:32;;;;;;;;;;;29.00;53.10;;;;;;5091902;28;19916;-87
2022/09/25 09:30:19;;;;;;;;;;;29.30;52.10;;;;;;5091045;28;19978;-86
2022/09/25 09:32:50;;;;;;;;;;;29.30;49.50;;;;;;5090799;28;19981;-90
2022/09/25 09:35:34;;;;;;;;;;;29.20;47.60;;;;;;5080459;28;19916;-92
2022/09/25 09:38:00;;;;;;;;;;;29.00;47.30;;;;;;5092343;28;19920;-92
2022/09/25 09:40:45;;;;;;;;;;;28.80;47.30;;;;;;5091544;28;19927;-90
2022/09/25 09:43:30;;;;;;;;;;;28.90;46.60;;;;;;5090690;28;20367;-92
2022/09/25 09:46:01;;;;;;;;;;;29.20;46.40;;;;;;5092234;28;20028;-87
2022/09/25 09:48:29;;;;;;;;;;;29.60;46.40;;;;;;5092611;28;19915;-90
2022/09/25 09:51:00;;;;;;;;;;;30.00;45.40;;;;;;5092719;28;19916;-90
2022/09/25 09:53:33;;;;;;;;;;;30.20;44.10;;;;;;5092982;28;19909;-90
2022/09/25 09:56:21;;;;;;;;;;;30.20;41.80;;;;;;5092719;28;19920;-93
2022/09/25 09:58:54;;;;;;;;;;;30.10;39.30;;;;;;5091408;28;19973;-91
2022/09/25 10:01:21;;;;;;;;;;;29.60;39.00;;;;;;5091656;28;19998;-86
2022/09/25 10:03:48;;;;;;;;;;;29.20;38.60;;;;;;5090727;28;20405;-87
2022/09/25 10:06:15;;;;;;;;;;;28.80;39.90;;;;;;5091373;28;19941;-92
2022/09/25 10:08:43;;;;;;;;;;;28.60;38.80;;;;;;5091503;28;20702;-91
2022/09/25 10:11:16;;;;;;;;;;;28.40;39.30;;;;;;5092393;28;20313;-87
2022/09/25 10:13:43;;;;;;;;;;;28.70;39.40;;;;;;5091460;28;19977;-91
2022/09/25 10:16:10;;;;;;;;;;;29.30;39.50;;;;;;5091642;28;19947;-90
2022/09/25 10:18:41;;;;;;;;;;;29.90;40.70;;;;;;5090458;28;19916;-88
2022/09/25 10:21:15;;;;;;;;;;;30.40;39.80;;;;;;5091377;28;20020;-88
2022/09/25 10:23:49;;;;;;;;;;;30.70;39.40;;;;;;5092496;28;19931;-88
2022/09/25 10:26:22;;;;;;;;;;;30.50;37.80;;;;;;5093039;28;19908;-87
2022/09/25 10:28:48;;;;;;;;;;;30.20;37.00;;;;;;5092070;28;19955;-86
2022/09/25 10:31:14;;;;;;;;;;;29.60;35.30;;;;;;5092567;28;19912;-86
2022/09/25 10:33:39;;;;;;;;;;;29.10;35.80;;;;;;5089170;28;20293;-88
2022/09/25 10:36:05;;;;;;;;;;;28.60;36.80;;;;;;5090820;28;19908;-87
2022/09/25 10:38:46;;;;;;;;;;;28.10;37.20;;;;;;5092078;28;19912;-89
2022/09/25 10:41:12;;;;;;;;;;;27.70;37.90;;;;;;5090708;28;19920;-91
2022/09/25 10:43:50;;;;;;;;;;;27.30;38.20;;;;;;5090607;28;20278;-89
2022/09/25 10:50:09;;;;;;;;;;;27.00;38.40;;;;;;5089849;28;19916;-93
2022/09/25 10:52:04;;;;;;;;;;;26.30;38.90;;;;;;5092079;28;20045;-89
2022/09/25 10:54:29;;;;;;;;;;;26.00;39.20;;;;;;5092582;28;19978;-87
2022/09/25 10:56:55;;;;;;;;;;;25.80;39.00;;;;;;5092272;28;19908;-87
2022/09/25 10:59:21;;;;;;;;;;;25.60;39.80;;;;;;5091196;28;20607;-88
2022/09/25 11:01:49;;;;;;;;;;;25.70;40.20;;;;;;5092247;28;19944;-89
2022/09/25 11:04:16;;;;;;;;;;;26.00;40.30;;;;;;5089988;28;19916;-90
2022/09/25 11:06:44;;;;;;;;;;;26.30;40.00;;;;;;5090102;28;20015;-86
2022/09/25 11:09:17;;;;;;;;;;;26.30;41.50;;;;;;5090811;28;19947;-87
2022/09/25 11:11:44;;;;;;;;;;;26.30;42.30;;;;;;5093737;28;20388;-89
2022/09/25 11:14:27;;;;;;;;;;;26.20;41.80;;;;;;5093637;28;20407;-91
2022/09/25 11:16:54;;;;;;;;;;;26.00;41.10;;;;;;5092682;28;20028;-88
2022/09/25 11:19:22;;;;;;;;;;;25.90;40.50;;;;;;5090879;28;19939;-86
2022/09/25 11:21:51;;;;;;;;;;;25.80;40.50;;;;;;5090551;28;20397;-88
2022/09/25 11:24:21;;;;;;;;;;;25.80;40.80;;;;;;5090850;28;20351;-89
2022/09/25 11:26:54;;;;;;;;;;;25.80;40.30;;;;;;5090580;28;19912;-90
2022/09/25 11:29:23;;;;;;;;;;;25.70;40.10;;;;;;5089807;28;19919;-86
2022/09/25 11:32:04;;;;;;;;;;;25.60;39.50;;;;;;5091750;28;19909;-88
2022/09/25 11:34:43;;;;;;;;;;;25.50;39.50;;;;;;5092061;28;19916;-87
2022/09/25 11:37:27;;;;;;;;;;;26.20;40.30;;;;;;5090399;28;20105;-91
2022/09/25 11:42:52;;;;;;;;;;;27.60;39.40;;;;;;5091578;28;19964;-93
2022/09/25 11:45:22;;;;;;;;;;;28.60;38.30;;;;;;5091892;28;19923;-89
2022/09/25 11:48:01;;;;;;;;;;;29.50;36.60;;;;;;5094046;28;19912;-88
2022/09/25 11:50:33;;;;;;;;;;;30.00;34.80;;;;;;5093955;28;20432;-88
2022/09/25 11:52:58;;;;;;;;;;;30.50;34.40;;;;;;5095315;28;19912;-88
2022/09/25 11:55:48;;;;;;;;;;;31.00;34.10;;;;;;5093898;28;19916;-93
2022/09/25 11:58:49;;;;;;;;;;;31.30;34.30;;;;;;5093748;28;19980;-91
2022/09/25 12:01:28;;;;;;;;;;;31.30;34.10;;;;;;5054659;28;20396;-90
2022/09/25 12:04:14;;;;;;;;;;;30.70;32.70;;;;;;5087461;28;19912;-85
2022/09/25 12:06:53;;;;;;;;;;;30.10;32.70;;;;;;5093196;28;19972;-88
2022/09/25 12:09:19;;;;;;;;;;;29.50;32.60;;;;;;5093804;28;20359;-86
2022/09/25 12:11:55;;;;;;;;;;;29.00;32.50;;;;;;5074799;28;19995;-87
2022/09/25 12:14:30;;;;;;;;;;;28.40;33.10;;;;;;5074124;28;20411;-90
2022/09/25 12:17:14;;;;;;;;;;;28.40;34.20;;;;;;5084613;28;19974;-86
2022/09/25 12:19:57;;;;;;;;;;;29.00;34.90;;;;;;5070755;28;20298;-90
2022/09/25 12:22:34;;;;;;;;;;;29.60;34.10;;;;;;5084055;28;19927;-91
2022/09/25 12:25:04;;;;;;;;;;;29.30;33.10;;;;;;5091243;28;20435;-91
2022/09/25 12:27:40;;;;;;;;;;;28.80;31.90;;;;;;5089631;28;19916;-89
2022/09/25 12:30:10;;;;;;;;;;;28.30;31.60;;;;;;5089365;28;19916;-86
2022/09/25 12:32:54;;;;;;;;;;;27.80;31.60;;;;;;5089697;28;19936;-90
2022/09/25 12:35:26;;;;;;;;;;;27.30;32.00;;;;;;5090917;28;19920;-88
2022/09/25 12:38:02;;;;;;;;;;;26.90;32.70;;;;;;5088829;28;19916;-87
2022/09/25 12:40:31;;;;;;;;;;;26.70;33.50;;;;;;5091439;28;20407;-90
2022/09/25 12:42:59;;;;;;;;;;;26.60;34.40;;;;;;5088867;28;20484;-92
2022/09/25 12:45:34;;;;;;;;;;;26.50;34.30;;;;;;5088845;28;19930;-91
2022/09/25 12:48:08;;;;;;;;;;;26.40;34.30;;;;;;5091025;28;19916;-87
2022/09/25 12:50:38;;;;;;;;;;;26.30;34.80;;;;;;5091556;28;20652;-89
2022/09/25 12:53:36;;;;;;;;;;;26.30;34.90;;;;;;5089933;28;19920;-93
2022/09/25 12:56:05;;;;;;;;;;;26.70;35.10;;;;;;5067140;28;19930;-93
2022/09/25 12:58:54;;;;;;;;;;;26.80;34.70;;;;;;5088840;28;19971;-92
2022/09/25 13:01:26;;;;;;;;;;;26.70;35.00;;;;;;5084859;28;19916;-90
2022/09/25 13:03:52;;;;;;;;;;;26.70;35.50;;;;;;5089370;28;20026;-93
2022/09/25 13:06:27;;;;;;;;;;;26.50;35.60;;;;;;5090876;28;20022;-87
2022/09/25 13:08:59;;;;;;;;;;;26.30;35.90;;;;;;5088800;28;20718;-91
2022/09/25 13:11:34;;;;;;;;;;;26.30;36.00;;;;;;5075384;28;20339;-93
2022/09/25 13:14:01;;;;;;;;;;;26.10;35.70;;;;;;5069564;28;19916;-87
2022/09/25 13:16:26;;;;;;;;;;;26.00;35.90;;;;;;5067889;28;19923;-90
2022/09/25 13:19:10;;;;;;;;;;;26.00;36.10;;;;;;5069227;28;19928;-90
2022/09/25 13:21:37;;;;;;;;;;;26.00;36.10;;;;;;5069760;28;20295;-88
2022/09/25 13:24:07;;;;;;;;;;;26.00;36.40;;;;;;5069620;28;20004;-88
2022/09/25 13:26:41;;;;;;;;;;;25.90;35.80;;;;;;5070083;28;19920;-87
2022/09/25 13:29:17;;;;;;;;;;;25.90;35.60;;;;;;5070090;28;19923;-91
2022/09/25 13:31:44;;;;;;;;;;;25.60;34.90;;;;;;5069803;28;19916;-90
2022/09/25 13:34:12;;;;;;;;;;;25.40;35.00;;;;;;5069528;28;19940;-93
2022/09/25 13:36:45;;;;;;;;;;;25.20;35.60;;;;;;5068493;28;19913;-90
2022/09/25 13:42:06;;;;;;;;;;;25.20;36.40;;;;;;5070232;28;19966;-89
2022/09/25 13:44:41;;;;;;;;;;;25.30;36.70;;;;;;5069143;28;19912;-89
2022/09/25 13:47:19;;;;;;;;;;;25.30;36.70;;;;;;5067059;28;19960;-93
2022/09/25 13:49:51;;;;;;;;;;;25.30;36.70;;;;;;5070294;28;20019;-94
2022/09/25 13:52:35;;;;;;;;;;;25.30;36.20;;;;;;5069974;28;20033;-92
2022/09/25 13:55:26;;;;;;;;;;;25.30;36.20;;;;;;5069090;28;19980;-92
2022/09/25 13:57:56;;;;;;;;;;;25.20;36.50;;;;;;5063915;28;20322;-91
2022/09/25 14:00:22;;;;;;;;;;;25.10;35.90;;;;;;5070028;28;19921;-88
2022/09/25 14:02:47;;;;;;;;;;;25.00;36.20;;;;;;5069039;28;19986;-86
2022/09/25 14:05:20;;;;;;;;;;;25.00;36.20;;;;;;5067151;28;19944;-93
2022/09/25 14:07:48;;;;;;;;;;;25.00;36.20;;;;;;5069021;28;19921;-88
2022/09/25 14:10:16;;;;;;;;;;;25.00;35.80;;;;;;5069606;28;19913;-89
2022/09/25 14:12:43;;;;;;;;;;;25.00;36.20;;;;;;5068297;28;19925;-90
2022/09/25 14:15:15;;;;;;;;;;;25.10;36.20;;;;;;5067778;28;19923;-92
2022/09/25 14:17:41;;;;;;;;;;;25.10;35.80;;;;;;5068171;28;19912;-86
2022/09/25 14:20:25;;;;;;;;;;;25.10;36.10;;;;;;5067996;28;19921;-89
2022/09/25 14:22:52;;;;;;;;;;;25.10;36.00;;;;;;5067212;28;19919;-86
2022/09/25 14:25:26;;;;;;;;;;;25.00;35.80;;;;;;5068037;28;19912;-88
2022/09/25 14:27:52;;;;;;;;;;;25.00;35.90;;;;;;5069129;28;20039;-87
2022/09/25 14:30:18;;;;;;;;;;;25.00;36.10;;;;;;5067145;28;20506;-93
2022/09/25 14:33:19;;;;;;;;;;;24.90;36.30;;;;;;5067025;28;20035;-93
2022/09/25 14:35:50;;;;;;;;;;;24.90;36.00;;;;;;5026299;28;19929;-85
2022/09/25 14:38:18;;;;;;;;;;;24.80;35.90;;;;;;5072382;28;19939;-88
2022/09/25 14:40:56;;;;;;;;;;;24.70;36.20;;;;;;5067312;28;19919;-86
2022/09/25 14:43:40;;;;;;;;;;;24.70;36.30;;;;;;5067643;28;20038;-89
2022/09/25 14:46:18;;;;;;;;;;;24.60;36.50;;;;;;5069010;28;19921;-85
2022/09/25 14:48:50;;;;;;;;;;;24.60;36.70;;;;;;5067575;28;20393;-89